Azucar — ZCTR4 — position and weather

sailwx.info

Track history (hours):
 
Tides and Currents Weather Stations Pressure Air Temp Water Temp Dewpoint Dewpoint Depression Visibility Wind Speed Wind Dir Waves Ship Positions

Azucar

Last reported at 2014-Aug-22 22:32 UTC. Time now 2014-Aug-23 11:32 UTC.
Position N 39°39' E 002°23'.

Length 40 m; draft 2.1 m.

Type: Pleasure craft. MMSI: 319416000.

Date/timePositionNaut miles runAvg speedWind from/ knotsBaromVisibWave heightAir tempDewpointWater temp
2014-Aug-22 22:32N 39°39' E 002°23'1313.1
2014-Aug-22 21:33N 39°47' E 002°36'1212.5
2014-Aug-22 20:33N 39°53' E 002°50'39 0.8
2014-Aug-20 20:34N 39°56' E 003°41'1111.1
2014-Aug-20 19:33N 39°51' E 003°27'8 7.2
2014-Aug-20 18:26N 39°46' E 003°20'0 0.0
2014-Aug-20 16:14N 39°46' E 003°20'0 0.0
2014-Aug-20 14:32N 39°46' E 003°20'0 0.0
2014-Aug-20 13:20N 39°46' E 003°20'0 0.0
2014-Aug-20 11:32N 39°46' E 003°20'0 0.0
2014-Aug-20 10:32N 39°46' E 003°20'15 0.8
2014-Aug-19 16:25N 39°31' E 003°22'15 2.1
2014-Aug-19 09:03N 39°46' E 003°20'0 0.0
2014-Aug-19 08:15N 39°46' E 003°20'4 5.8
2014-Aug-19 07:33N 39°50' E 003°17'20 8.9
2014-Aug-19 05:20N 39°54' E 002°52'1013.1
2014-Aug-19 04:33N 39°49' E 002°41'5 0.2
2014-Aug-18 08:19N 39°45' E 002°37'912.3
2014-Aug-18 07:33N 39°40' E 002°26'8 2.5
2014-Aug-18 04:12N 39°32' E 002°22'0 0.0
2014-Aug-18 01:30N 39°32' E 002°22'0 0.0
2014-Aug-17 18:21N 39°33' E 002°22'3 0.3
2014-Aug-17 07:33N 39°30' E 002°25'11 0.5
2014-Aug-16 07:20N 39°33' E 002°38'12 0.2
2014-Aug-14 08:33N 39°30' E 002°24'10 9.7
2014-Aug-14 07:33N 39°31' E 002°36'2 2.5
2014-Aug-14 06:33N 39°33' E 002°38'0 0.0
2014-Aug-14 05:33N 39°33' E 002°38'0 0.0
2014-Aug-14 04:33N 39°33' E 002°38'0 0.0
2014-Aug-14 03:33N 39°33' E 002°38'0 0.0
2014-Aug-14 02:33N 39°33' E 002°38'0 0.0
2014-Aug-14 01:33N 39°33' E 002°38'0 0.0
2014-Aug-14 00:33N 39°33' E 002°38'0 0.0
2014-Aug-13 23:33N 39°33' E 002°38'0 0.0
2014-Aug-13 22:33N 39°33' E 002°38'0 0.0
2014-Aug-13 21:33N 39°33' E 002°38'0 0.0
2014-Aug-13 20:33N 39°33' E 002°38'0 0.0
2014-Aug-13 19:33N 39°33' E 002°38'0 0.0
2014-Aug-13 18:33N 39°33' E 002°38'0 0.0
2014-Aug-13 17:33N 39°33' E 002°38'0 0.0
2014-Aug-13 16:33N 39°33' E 002°38'0 0.0
2014-Aug-13 15:33N 39°33' E 002°38'0 0.0
2014-Aug-13 14:33N 39°33' E 002°38'1 0.5
2014-Aug-13 13:33N 39°33' E 002°38'5 5.1
2014-Aug-13 12:33N 39°31' E 002°33'0 0.0
2014-Aug-13 11:33N 39°31' E 002°33'3 3.2
2014-Aug-13 10:33N 39°32' E 002°36'2 1.7
2014-Aug-13 09:31N 39°33' E 002°38'0 0.0
2014-Aug-13 08:31N 39°33' E 002°38'  
Track history (hours):
 
Tides and Currents Weather Stations Pressure Air Temp Water Temp Dewpoint Dewpoint Depression Visibility Wind Speed Wind Dir Waves Ship Positions

Azucar

Last reported at 2014-Aug-22 22:32 UTC. Time now 2014-Aug-23 11:32 UTC.
Position N 39°39' E 002°23'.

Length 40 m; draft 2.1 m.

Type: Pleasure craft. MMSI: 319416000.

Date/timePositionNaut miles runAvg speedWind from/ knotsBaromVisibWave heightAir tempDewpointWater temp
2014-Aug-22 22:32N 39°39' E 002°23'1313.1
2014-Aug-22 21:33N 39°47' E 002°36'1212.5
2014-Aug-22 20:33N 39°53' E 002°50'39 0.8
2014-Aug-20 20:34N 39°56' E 003°41'1111.1
2014-Aug-20 19:33N 39°51' E 003°27'8 7.2
2014-Aug-20 18:26N 39°46' E 003°20'0 0.0
2014-Aug-20 16:14N 39°46' E 003°20'0 0.0
2014-Aug-20 14:32N 39°46' E 003°20'0 0.0
2014-Aug-20 13:20N 39°46' E 003°20'0 0.0
2014-Aug-20 11:32N 39°46' E 003°20'0 0.0
2014-Aug-20 10:32N 39°46' E 003°20'15 0.8
2014-Aug-19 16:25N 39°31' E 003°22'15 2.1
2014-Aug-19 09:03N 39°46' E 003°20'0 0.0
2014-Aug-19 08:15N 39°46' E 003°20'4 5.8
2014-Aug-19 07:33N 39°50' E 003°17'20 8.9
2014-Aug-19 05:20N 39°54' E 002°52'1013.1
2014-Aug-19 04:33N 39°49' E 002°41'5 0.2
2014-Aug-18 08:19N 39°45' E 002°37'912.3
2014-Aug-18 07:33N 39°40' E 002°26'8 2.5
2014-Aug-18 04:12N 39°32' E 002°22'0 0.0
2014-Aug-18 01:30N 39°32' E 002°22'0 0.0
2014-Aug-17 18:21N 39°33' E 002°22'3 0.3
2014-Aug-17 07:33N 39°30' E 002°25'11 0.5
2014-Aug-16 07:20N 39°33' E 002°38'12 0.2
2014-Aug-14 08:33N 39°30' E 002°24'10 9.7
2014-Aug-14 07:33N 39°31' E 002°36'2 2.5
2014-Aug-14 06:33N 39°33' E 002°38'0 0.0
2014-Aug-14 05:33N 39°33' E 002°38'0 0.0
2014-Aug-14 04:33N 39°33' E 002°38'0 0.0
2014-Aug-14 03:33N 39°33' E 002°38'0 0.0
2014-Aug-14 02:33N 39°33' E 002°38'0 0.0
2014-Aug-14 01:33N 39°33' E 002°38'0 0.0
2014-Aug-14 00:33N 39°33' E 002°38'0 0.0
2014-Aug-13 23:33N 39°33' E 002°38'0 0.0
2014-Aug-13 22:33N 39°33' E 002°38'0 0.0
2014-Aug-13 21:33N 39°33' E 002°38'0 0.0
2014-Aug-13 20:33N 39°33' E 002°38'0 0.0
2014-Aug-13 19:33N 39°33' E 002°38'0 0.0
2014-Aug-13 18:33N 39°33' E 002°38'0 0.0
2014-Aug-13 17:33N 39°33' E 002°38'0 0.0
2014-Aug-13 16:33N 39°33' E 002°38'0 0.0
2014-Aug-13 15:33N 39°33' E 002°38'0 0.0
2014-Aug-13 14:33N 39°33' E 002°38'1 0.5
2014-Aug-13 13:33N 39°33' E 002°38'5 5.1
2014-Aug-13 12:33N 39°31' E 002°33'0 0.0
2014-Aug-13 11:33N 39°31' E 002°33'3 3.2
2014-Aug-13 10:33N 39°32' E 002°36'2 1.7
2014-Aug-13 09:31N 39°33' E 002°38'0 0.0
2014-Aug-13 08:31N 39°33' E 002°38'  

Dump ship's entire track history